sensor_id;sensor_type;location;lat;lon;timestamp;P1;durP1;ratioP1;P2;durP2;ratioP2
72949;SDS011;64868;45.710;9.590;2024-02-28T00:01:50;2.80;;;0.80;;
72949;SDS011;64868;45.710;9.590;2024-02-28T00:04:16;3.90;;;0.90;;
72949;SDS011;64868;45.710;9.590;2024-02-28T00:09:23;3.08;;;0.80;;
72949;SDS011;64868;45.710;9.590;2024-02-28T00:11:55;2.88;;;0.80;;
72949;SDS011;64868;45.710;9.590;2024-02-28T00:14:23;2.90;;;0.77;;
72949;SDS011;64868;45.710;9.590;2024-02-28T00:16:51;2.63;;;0.73;;
72949;SDS011;64868;45.710;9.590;2024-02-28T00:22:12;8.75;;;2.80;;
72949;SDS011;64868;45.710;9.590;2024-02-28T00:27:27;9.07;;;2.40;;
72949;SDS011;64868;45.710;9.590;2024-02-28T00:32:54;3.67;;;1.00;;
72949;SDS011;64868;45.710;9.590;2024-02-28T00:35:27;3.83;;;1.00;;
72949;SDS011;64868;45.710;9.590;2024-02-28T00:38:08;3.90;;;1.00;;
72949;SDS011;64868;45.710;9.590;2024-02-28T00:40:40;5.05;;;1.00;;
72949;SDS011;64868;45.710;9.590;2024-02-28T00:43:07;3.42;;;0.90;;
72949;SDS011;64868;45.710;9.590;2024-02-28T00:45:41;4.00;;;1.00;;
72949;SDS011;64868;45.710;9.590;2024-02-28T00:48:11;3.72;;;0.73;;
72949;SDS011;64868;45.710;9.590;2024-02-28T00:50:50;3.70;;;0.80;;
72949;SDS011;64868;45.710;9.590;2024-02-28T00:53:34;3.42;;;0.75;;
72949;SDS011;64868;45.710;9.590;2024-02-28T00:56:00;3.47;;;0.60;;
72949;SDS011;64868;45.710;9.590;2024-02-28T01:01:40;3.47;;;0.60;;
72949;SDS011;64868;45.710;9.590;2024-02-28T01:07:09;3.25;;;0.75;;
72949;SDS011;64868;45.710;9.590;2024-02-28T01:09:36;2.03;;;0.52;;
72949;SDS011;64868;45.710;9.590;2024-02-28T01:12:03;4.80;;;0.70;;
72949;SDS011;64868;45.710;9.590;2024-02-28T01:14:37;3.10;;;0.68;;
72949;SDS011;64868;45.710;9.590;2024-02-28T01:19:44;2.85;;;0.70;;
72949;SDS011;64868;45.710;9.590;2024-02-28T01:22:10;3.47;;;0.93;;
72949;SDS011;64868;45.710;9.590;2024-02-28T01:24:36;3.00;;;0.65;;
72949;SDS011;64868;45.710;9.590;2024-02-28T01:27:03;3.50;;;0.73;;
72949;SDS011;64868;45.710;9.590;2024-02-28T01:35:17;2.50;;;0.60;;
72949;SDS011;64868;45.710;9.590;2024-02-28T01:37:44;2.60;;;0.70;;
72949;SDS011;64868;45.710;9.590;2024-02-28T01:40:12;2.15;;;0.70;;
72949;SDS011;64868;45.710;9.590;2024-02-28T01:42:46;2.88;;;0.60;;
72949;SDS011;64868;45.710;9.590;2024-02-28T01:45:13;3.25;;;0.70;;
72949;SDS011;64868;45.710;9.590;2024-02-28T01:47:55;3.83;;;0.75;;
72949;SDS011;64868;45.710;9.590;2024-02-28T01:50:21;3.38;;;0.70;;
72949;SDS011;64868;45.710;9.590;2024-02-28T01:52:48;2.20;;;0.60;;
72949;SDS011;64868;45.710;9.590;2024-02-28T01:55:15;2.58;;;0.52;;
72949;SDS011;64868;45.710;9.590;2024-02-28T02:03:23;2.45;;;0.70;;
72949;SDS011;64868;45.710;9.590;2024-02-28T02:05:49;4.28;;;0.98;;
72949;SDS011;64868;45.710;9.590;2024-02-28T02:08:15;2.15;;;0.60;;
72949;SDS011;64868;45.710;9.590;2024-02-28T02:10:42;2.90;;;0.60;;
72949;SDS011;64868;45.710;9.590;2024-02-28T02:18:24;2.95;;;0.45;;
72949;SDS011;64868;45.710;9.590;2024-02-28T02:20:59;3.75;;;0.50;;
72949;SDS011;64868;45.710;9.590;2024-02-28T02:23:30;2.22;;;0.60;;
72949;SDS011;64868;45.710;9.590;2024-02-28T02:25:57;3.97;;;0.73;;
72949;SDS011;64868;45.710;9.590;2024-02-28T02:28:24;2.22;;;0.50;;
72949;SDS011;64868;45.710;9.590;2024-02-28T02:30:50;1.73;;;0.40;;
72949;SDS011;64868;45.710;9.590;2024-02-28T02:33:16;2.17;;;0.50;;
72949;SDS011;64868;45.710;9.590;2024-02-28T02:35:51;3.33;;;0.55;;
72949;SDS011;64868;45.710;9.590;2024-02-28T02:38:19;4.78;;;0.90;;
72949;SDS011;64868;45.710;9.590;2024-02-28T02:40:59;3.75;;;0.60;;
72949;SDS011;64868;45.710;9.590;2024-02-28T02:43:34;2.50;;;0.65;;
72949;SDS011;64868;45.710;9.590;2024-02-28T02:48:46;4.85;;;0.60;;
72949;SDS011;64868;45.710;9.590;2024-02-28T02:51:12;3.28;;;0.60;;
72949;SDS011;64868;45.710;9.590;2024-02-28T02:53:47;2.58;;;0.63;;
72949;SDS011;64868;45.710;9.590;2024-02-28T02:59:07;2.05;;;0.60;;
72949;SDS011;64868;45.710;9.590;2024-02-28T03:04:30;2.13;;;0.55;;
72949;SDS011;64868;45.710;9.590;2024-02-28T03:06:57;2.80;;;0.50;;
72949;SDS011;64868;45.710;9.590;2024-02-28T03:09:23;1.80;;;0.55;;
72949;SDS011;64868;45.710;9.590;2024-02-28T03:11:50;2.40;;;0.50;;
72949;SDS011;64868;45.710;9.590;2024-02-28T03:14:21;2.67;;;0.60;;
72949;SDS011;64868;45.710;9.590;2024-02-28T03:25:17;1.85;;;0.50;;
72949;SDS011;64868;45.710;9.590;2024-02-28T03:27:43;3.35;;;0.70;;
72949;SDS011;64868;45.710;9.590;2024-02-28T03:30:17;2.88;;;0.43;;
72949;SDS011;64868;45.710;9.590;2024-02-28T03:32:45;3.88;;;0.60;;
72949;SDS011;64868;45.710;9.590;2024-02-28T03:35:17;1.73;;;0.40;;
72949;SDS011;64868;45.710;9.590;2024-02-28T03:37:44;2.45;;;0.52;;
72949;SDS011;64868;45.710;9.590;2024-02-28T03:40:17;3.53;;;0.70;;
72949;SDS011;64868;45.710;9.590;2024-02-28T03:42:43;1.67;;;0.43;;
72949;SDS011;64868;45.710;9.590;2024-02-28T03:45:15;4.85;;;0.90;;
72949;SDS011;64868;45.710;9.590;2024-02-28T03:47:48;3.22;;;0.93;;
72949;SDS011;64868;45.710;9.590;2024-02-28T03:50:23;3.78;;;1.02;;
72949;SDS011;64868;45.710;9.590;2024-02-28T03:52:49;5.30;;;1.40;;
72949;SDS011;64868;45.710;9.590;2024-02-28T03:55:28;6.18;;;1.80;;
72949;SDS011;64868;45.710;9.590;2024-02-28T03:57:56;5.80;;;2.10;;
72949;SDS011;64868;45.710;9.590;2024-02-28T04:00:23;5.75;;;2.13;;
72949;SDS011;64868;45.710;9.590;2024-02-28T04:02:50;6.93;;;2.85;;
72949;SDS011;64868;45.710;9.590;2024-02-28T04:05:16;5.50;;;1.90;;
72949;SDS011;64868;45.710;9.590;2024-02-28T04:07:50;5.00;;;1.83;;
72949;SDS011;64868;45.710;9.590;2024-02-28T04:10:28;6.15;;;1.60;;
72949;SDS011;64868;45.710;9.590;2024-02-28T04:12:55;5.60;;;1.75;;
72949;SDS011;64868;45.710;9.590;2024-02-28T04:15:27;4.95;;;1.77;;
72949;SDS011;64868;45.710;9.590;2024-02-28T04:18:06;4.72;;;1.80;;
72949;SDS011;64868;45.710;9.590;2024-02-28T04:20:38;7.05;;;1.90;;
72949;SDS011;64868;45.710;9.590;2024-02-28T04:23:17;5.63;;;1.52;;
72949;SDS011;64868;45.710;9.590;2024-02-28T04:25:43;5.25;;;1.70;;
72949;SDS011;64868;45.710;9.590;2024-02-28T04:28:15;5.35;;;1.70;;
72949;SDS011;64868;45.710;9.590;2024-02-28T04:30:51;4.88;;;1.42;;
72949;SDS011;64868;45.710;9.590;2024-02-28T04:33:17;4.75;;;1.63;;
72949;SDS011;64868;45.710;9.590;2024-02-28T04:35:49;7.43;;;2.92;;
72949;SDS011;64868;45.710;9.590;2024-02-28T04:38:23;7.50;;;3.30;;
72949;SDS011;64868;45.710;9.590;2024-02-28T04:44:00;5.13;;;1.95;;
72949;SDS011;64868;45.710;9.590;2024-02-28T04:46:28;6.82;;;1.80;;
72949;SDS011;64868;45.710;9.590;2024-02-28T04:48:54;4.90;;;1.70;;
72949;SDS011;64868;45.710;9.590;2024-02-28T04:51:32;4.97;;;1.88;;
72949;SDS011;64868;45.710;9.590;2024-02-28T04:54:02;4.65;;;1.50;;
72949;SDS011;64868;45.710;9.590;2024-02-28T04:56:39;5.10;;;1.67;;
72949;SDS011;64868;45.710;9.590;2024-02-28T04:59:12;4.38;;;1.50;;
72949;SDS011;64868;45.710;9.590;2024-02-28T05:04:53;6.03;;;1.50;;
72949;SDS011;64868;45.710;9.590;2024-02-28T05:07:23;5.03;;;1.73;;
72949;SDS011;64868;45.710;9.590;2024-02-28T05:09:51;5.38;;;1.45;;
72949;SDS011;64868;45.710;9.590;2024-02-28T05:12:24;4.40;;;1.50;;
72949;SDS011;64868;45.710;9.590;2024-02-28T05:14:50;4.45;;;1.30;;
72949;SDS011;64868;45.710;9.590;2024-02-28T05:17:17;4.78;;;1.70;;
72949;SDS011;64868;45.710;9.590;2024-02-28T05:19:46;4.57;;;1.50;;
72949;SDS011;64868;45.710;9.590;2024-02-28T05:22:21;5.25;;;2.00;;
72949;SDS011;64868;45.710;9.590;2024-02-28T05:24:48;6.15;;;2.20;;
72949;SDS011;64868;45.710;9.590;2024-02-28T05:27:15;4.70;;;1.70;;
72949;SDS011;64868;45.710;9.590;2024-02-28T05:29:44;5.47;;;2.50;;
72949;SDS011;64868;45.710;9.590;2024-02-28T05:32:10;6.45;;;1.92;;
72949;SDS011;64868;45.710;9.590;2024-02-28T05:34:45;5.15;;;1.85;;
72949;SDS011;64868;45.710;9.590;2024-02-28T05:37:11;7.00;;;2.78;;
72949;SDS011;64868;45.710;9.590;2024-02-28T05:39:36;7.55;;;2.50;;
72949;SDS011;64868;45.710;9.590;2024-02-28T05:42:03;6.20;;;2.28;;
72949;SDS011;64868;45.710;9.590;2024-02-28T05:44:35;5.50;;;2.15;;
72949;SDS011;64868;45.710;9.590;2024-02-28T05:47:01;5.57;;;2.20;;
72949;SDS011;64868;45.710;9.590;2024-02-28T05:49:27;5.80;;;2.15;;
72949;SDS011;64868;45.710;9.590;2024-02-28T05:51:59;7.75;;;2.55;;
72949;SDS011;64868;45.710;9.590;2024-02-28T05:54:26;9.93;;;2.53;;
72949;SDS011;64868;45.710;9.590;2024-02-28T05:57:04;5.43;;;2.00;;
72949;SDS011;64868;45.710;9.590;2024-02-28T05:59:31;7.93;;;2.78;;
72949;SDS011;64868;45.710;9.590;2024-02-28T06:02:00;7.88;;;2.58;;
72949;SDS011;64868;45.710;9.590;2024-02-28T06:04:32;5.75;;;1.88;;
72949;SDS011;64868;45.710;9.590;2024-02-28T06:12:19;4.18;;;1.40;;
72949;SDS011;64868;45.710;9.590;2024-02-28T06:14:48;4.70;;;1.42;;
72949;SDS011;64868;45.710;9.590;2024-02-28T06:17:20;3.95;;;1.35;;
72949;SDS011;64868;45.710;9.590;2024-02-28T06:19:49;3.75;;;1.13;;
72949;SDS011;64868;45.710;9.590;2024-02-28T06:22:16;5.53;;;1.52;;
72949;SDS011;64868;45.710;9.590;2024-02-28T06:24:48;4.95;;;1.75;;
72949;SDS011;64868;45.710;9.590;2024-02-28T06:27:25;5.03;;;1.67;;
72949;SDS011;64868;45.710;9.590;2024-02-28T06:29:56;6.70;;;2.13;;
72949;SDS011;64868;45.710;9.590;2024-02-28T06:32:24;5.68;;;1.88;;
72949;SDS011;64868;45.710;9.590;2024-02-28T06:34:52;5.95;;;1.88;;
72949;SDS011;64868;45.710;9.590;2024-02-28T06:37:19;5.93;;;1.75;;
72949;SDS011;64868;45.710;9.590;2024-02-28T06:39:48;6.68;;;1.95;;
72949;SDS011;64868;45.710;9.590;2024-02-28T06:42:40;7.28;;;2.70;;
72949;SDS011;64868;45.710;9.590;2024-02-28T06:45:18;6.47;;;2.40;;
72949;SDS011;64868;45.710;9.590;2024-02-28T06:53:19;7.90;;;2.00;;
72949;SDS011;64868;45.710;9.590;2024-02-28T06:55:53;4.50;;;1.30;;
72949;SDS011;64868;45.710;9.590;2024-02-28T06:58:32;4.18;;;1.05;;
72949;SDS011;64868;45.710;9.590;2024-02-28T07:01:06;4.13;;;0.90;;
72949;SDS011;64868;45.710;9.590;2024-02-28T07:03:45;6.00;;;0.90;;
72949;SDS011;64868;45.710;9.590;2024-02-28T07:09:08;3.70;;;0.70;;
72949;SDS011;64868;45.710;9.590;2024-02-28T07:11:34;2.95;;;0.65;;
72949;SDS011;64868;45.710;9.590;2024-02-28T07:14:00;5.43;;;0.70;;
72949;SDS011;64868;45.710;9.590;2024-02-28T07:16:35;2.55;;;0.68;;
72949;SDS011;64868;45.710;9.590;2024-02-28T07:21:39;2.15;;;0.57;;
72949;SDS011;64868;45.710;9.590;2024-02-28T07:24:10;1.98;;;0.50;;
72949;SDS011;64868;45.710;9.590;2024-02-28T07:26:39;4.75;;;0.68;;
72949;SDS011;64868;45.710;9.590;2024-02-28T07:29:19;16.17;;;1.15;;
72949;SDS011;64868;45.710;9.590;2024-02-28T07:31:49;3.00;;;0.70;;
72949;SDS011;64868;45.710;9.590;2024-02-28T07:34:15;2.60;;;0.65;;
72949;SDS011;64868;45.710;9.590;2024-02-28T07:36:43;3.20;;;0.60;;
72949;SDS011;64868;45.710;9.590;2024-02-28T07:39:16;6.70;;;0.80;;
72949;SDS011;64868;45.710;9.590;2024-02-28T07:41:42;3.72;;;0.90;;
72949;SDS011;64868;45.710;9.590;2024-02-28T07:44:10;3.58;;;0.80;;
72949;SDS011;64868;45.710;9.590;2024-02-28T07:46:40;3.05;;;0.80;;
72949;SDS011;64868;45.710;9.590;2024-02-28T07:55:16;7.57;;;1.40;;
72949;SDS011;64868;45.710;9.590;2024-02-28T07:57:45;4.75;;;1.00;;
72949;SDS011;64868;45.710;9.590;2024-02-28T08:00:14;5.05;;;1.02;;
72949;SDS011;64868;45.710;9.590;2024-02-28T08:02:44;3.08;;;0.75;;
72949;SDS011;64868;45.710;9.590;2024-02-28T08:05:15;3.78;;;0.85;;
72949;SDS011;64868;45.710;9.590;2024-02-28T08:07:51;5.13;;;0.98;;
72949;SDS011;64868;45.710;9.590;2024-02-28T08:10:21;4.65;;;1.00;;
72949;SDS011;64868;45.710;9.590;2024-02-28T08:12:52;4.72;;;1.00;;
72949;SDS011;64868;45.710;9.590;2024-02-28T08:15:20;3.63;;;0.70;;
72949;SDS011;64868;45.710;9.590;2024-02-28T08:17:52;4.47;;;0.90;;
72949;SDS011;64868;45.710;9.590;2024-02-28T08:23:02;4.83;;;1.50;;
72949;SDS011;64868;45.710;9.590;2024-02-28T08:42:42;4.43;;;1.55;;
72949;SDS011;64868;45.710;9.590;2024-02-28T08:45:08;6.95;;;1.63;;
72949;SDS011;64868;45.710;9.590;2024-02-28T08:47:37;4.93;;;1.52;;
72949;SDS011;64868;45.710;9.590;2024-02-28T08:50:04;5.55;;;1.40;;
72949;SDS011;64868;45.710;9.590;2024-02-28T08:52:36;6.15;;;1.20;;
72949;SDS011;64868;45.710;9.590;2024-02-28T08:57:37;3.60;;;0.82;;
72949;SDS011;64868;45.710;9.590;2024-02-28T09:00:04;4.68;;;0.80;;
72949;SDS011;64868;45.710;9.590;2024-02-28T09:02:35;4.97;;;1.15;;
72949;SDS011;64868;45.710;9.590;2024-02-28T09:05:04;5.57;;;1.70;;
72949;SDS011;64868;45.710;9.590;2024-02-28T09:10:45;5.50;;;1.73;;
72949;SDS011;64868;45.710;9.590;2024-02-28T09:19:29;6.28;;;1.80;;
72949;SDS011;64868;45.710;9.590;2024-02-28T09:28:14;6.50;;;1.63;;
72949;SDS011;64868;45.710;9.590;2024-02-28T09:30:43;4.90;;;1.52;;
72949;SDS011;64868;45.710;9.590;2024-02-28T09:33:14;6.10;;;1.80;;
72949;SDS011;64868;45.710;9.590;2024-02-28T09:35:42;7.78;;;2.83;;
72949;SDS011;64868;45.710;9.590;2024-02-28T09:38:10;5.72;;;2.90;;
72949;SDS011;64868;45.710;9.590;2024-02-28T09:40:36;6.97;;;1.92;;
72949;SDS011;64868;45.710;9.590;2024-02-28T09:43:04;7.13;;;2.03;;
72949;SDS011;64868;45.710;9.590;2024-02-28T09:48:19;3.38;;;0.70;;
72949;SDS011;64868;45.710;9.590;2024-02-28T09:50:45;3.83;;;0.70;;
72949;SDS011;64868;45.710;9.590;2024-02-28T09:53:13;4.15;;;0.80;;
72949;SDS011;64868;45.710;9.590;2024-02-28T09:55:40;4.07;;;0.60;;
72949;SDS011;64868;45.710;9.590;2024-02-28T09:58:07;2.58;;;0.63;;
72949;SDS011;64868;45.710;9.590;2024-02-28T10:00:35;2.78;;;0.60;;
72949;SDS011;64868;45.710;9.590;2024-02-28T10:03:02;3.92;;;0.80;;
72949;SDS011;64868;45.710;9.590;2024-02-28T10:05:33;3.28;;;0.70;;
72949;SDS011;64868;45.710;9.590;2024-02-28T10:13:27;5.60;;;2.10;;
72949;SDS011;64868;45.710;9.590;2024-02-28T10:15:57;5.18;;;2.13;;
72949;SDS011;64868;45.710;9.590;2024-02-28T10:21:04;6.53;;;1.80;;
72949;SDS011;64868;45.710;9.590;2024-02-28T10:23:34;5.78;;;1.80;;
72949;SDS011;64868;45.710;9.590;2024-02-28T10:26:12;4.13;;;1.30;;
72949;SDS011;64868;45.710;9.590;2024-02-28T10:28:41;4.57;;;1.30;;
72949;SDS011;64868;45.710;9.590;2024-02-28T10:31:09;4.18;;;1.30;;
72949;SDS011;64868;45.710;9.590;2024-02-28T10:33:42;5.90;;;1.63;;
72949;SDS011;64868;45.710;9.590;2024-02-28T10:36:09;4.57;;;1.40;;
72949;SDS011;64868;45.710;9.590;2024-02-28T10:41:44;5.45;;;1.27;;
72949;SDS011;64868;45.710;9.590;2024-02-28T10:44:14;7.50;;;1.48;;
72949;SDS011;64868;45.710;9.590;2024-02-28T10:46:44;5.60;;;1.83;;
72949;SDS011;64868;45.710;9.590;2024-02-28T10:49:14;10.80;;;3.40;;
72949;SDS011;64868;45.710;9.590;2024-02-28T10:51:42;10.65;;;4.75;;
72949;SDS011;64868;45.710;9.590;2024-02-28T10:54:12;9.32;;;3.63;;
72949;SDS011;64868;45.710;9.590;2024-02-28T11:01:55;8.93;;;1.60;;
72949;SDS011;64868;45.710;9.590;2024-02-28T11:07:02;5.22;;;1.25;;
72949;SDS011;64868;45.710;9.590;2024-02-28T11:09:30;4.13;;;1.10;;
72949;SDS011;64868;45.710;9.590;2024-02-28T11:14:55;4.47;;;1.20;;
72949;SDS011;64868;45.710;9.590;2024-02-28T11:20:45;4.15;;;1.20;;
72949;SDS011;64868;45.710;9.590;2024-02-28T11:23:25;4.15;;;1.13;;
72949;SDS011;64868;45.710;9.590;2024-02-28T11:25:57;5.25;;;1.20;;
72949;SDS011;64868;45.710;9.590;2024-02-28T11:28:23;5.75;;;1.60;;
72949;SDS011;64868;45.710;9.590;2024-02-28T11:30:50;4.28;;;1.20;;
72949;SDS011;64868;45.710;9.590;2024-02-28T11:33:17;4.40;;;1.20;;
72949;SDS011;64868;45.710;9.590;2024-02-28T11:35:56;4.32;;;1.30;;
72949;SDS011;64868;45.710;9.590;2024-02-28T11:38:26;4.32;;;1.30;;
72949;SDS011;64868;45.710;9.590;2024-02-28T11:40:54;4.35;;;1.20;;
72949;SDS011;64868;45.710;9.590;2024-02-28T11:43:38;5.05;;;1.52;;
72949;SDS011;64868;45.710;9.590;2024-02-28T11:46:10;5.18;;;1.50;;
72949;SDS011;64868;45.710;9.590;2024-02-28T11:48:39;6.15;;;1.80;;
72949;SDS011;64868;45.710;9.590;2024-02-28T11:51:05;5.65;;;1.80;;
72949;SDS011;64868;45.710;9.590;2024-02-28T11:53:31;6.63;;;1.75;;
72949;SDS011;64868;45.710;9.590;2024-02-28T11:56:09;5.65;;;1.90;;
72949;SDS011;64868;45.710;9.590;2024-02-28T11:58:35;4.88;;;1.58;;
72949;SDS011;64868;45.710;9.590;2024-02-28T12:01:01;5.20;;;1.67;;
72949;SDS011;64868;45.710;9.590;2024-02-28T12:03:30;3.85;;;1.15;;
72949;SDS011;64868;45.710;9.590;2024-02-28T12:28:26;3.90;;;0.82;;
72949;SDS011;64868;45.710;9.590;2024-02-28T12:31:01;4.85;;;1.02;;
72949;SDS011;64868;45.710;9.590;2024-02-28T12:33:31;3.58;;;1.00;;
72949;SDS011;64868;45.710;9.590;2024-02-28T12:36:07;4.00;;;1.00;;
72949;SDS011;64868;45.710;9.590;2024-02-28T12:41:32;3.30;;;0.93;;
72949;SDS011;64868;45.710;9.590;2024-02-28T12:44:07;7.20;;;0.95;;
72949;SDS011;64868;45.710;9.590;2024-02-28T12:46:34;3.95;;;1.13;;
72949;SDS011;64868;45.710;9.590;2024-02-28T12:49:01;3.78;;;0.88;;
72949;SDS011;64868;45.710;9.590;2024-02-28T12:51:40;2.35;;;0.45;;
72949;SDS011;64868;45.710;9.590;2024-02-28T12:54:13;6.13;;;0.70;;
72949;SDS011;64868;45.710;9.590;2024-02-28T12:56:50;2.47;;;0.68;;
72949;SDS011;64868;45.710;9.590;2024-02-28T12:59:29;5.35;;;2.03;;
72949;SDS011;64868;45.710;9.590;2024-02-28T13:04:48;5.10;;;1.10;;
72949;SDS011;64868;45.710;9.590;2024-02-28T13:10:14;3.42;;;1.00;;
72949;SDS011;64868;45.710;9.590;2024-02-28T13:12:53;4.03;;;0.80;;
72949;SDS011;64868;45.710;9.590;2024-02-28T13:15:34;3.88;;;0.70;;
72949;SDS011;64868;45.710;9.590;2024-02-28T13:18:18;4.93;;;0.98;;
72949;SDS011;64868;45.710;9.590;2024-02-28T13:21:12;3.55;;;0.95;;
72949;SDS011;64868;45.710;9.590;2024-02-28T13:23:57;2.78;;;0.70;;
72949;SDS011;64868;45.710;9.590;2024-02-28T13:26:30;2.42;;;0.63;;
72949;SDS011;64868;45.710;9.590;2024-02-28T13:29:04;3.03;;;0.70;;
72949;SDS011;64868;45.710;9.590;2024-02-28T13:31:32;3.92;;;0.70;;
72949;SDS011;64868;45.710;9.590;2024-02-28T13:36:46;2.97;;;0.70;;
72949;SDS011;64868;45.710;9.590;2024-02-28T13:39:17;3.95;;;0.70;;
72949;SDS011;64868;45.710;9.590;2024-02-28T13:44:39;4.07;;;0.60;;
72949;SDS011;64868;45.710;9.590;2024-02-28T13:47:07;4.63;;;0.90;;
72949;SDS011;64868;45.710;9.590;2024-02-28T13:49:55;2.67;;;0.70;;
72949;SDS011;64868;45.710;9.590;2024-02-28T13:52:58;5.00;;;0.90;;
72949;SDS011;64868;45.710;9.590;2024-02-28T13:58:05;3.58;;;0.75;;
72949;SDS011;64868;45.710;9.590;2024-02-28T14:00:41;3.67;;;0.90;;
72949;SDS011;64868;45.710;9.590;2024-02-28T14:03:17;4.20;;;0.75;;
72949;SDS011;64868;45.710;9.590;2024-02-28T14:05:51;4.82;;;1.02;;
72949;SDS011;64868;45.710;9.590;2024-02-28T14:08:24;3.63;;;0.82;;
72949;SDS011;64868;45.710;9.590;2024-02-28T14:10:52;4.57;;;1.23;;
72949;SDS011;64868;45.710;9.590;2024-02-28T14:13:37;4.80;;;0.80;;
72949;SDS011;64868;45.710;9.590;2024-02-28T14:16:10;5.57;;;0.80;;
72949;SDS011;64868;45.710;9.590;2024-02-28T14:18:53;5.07;;;0.77;;
72949;SDS011;64868;45.710;9.590;2024-02-28T14:21:21;3.65;;;1.00;;
72949;SDS011;64868;45.710;9.590;2024-02-28T14:40:36;4.05;;;1.02;;
72949;SDS011;64868;45.710;9.590;2024-02-28T14:43:26;4.53;;;1.30;;
72949;SDS011;64868;45.710;9.590;2024-02-28T14:48:30;6.55;;;1.60;;
72949;SDS011;64868;45.710;9.590;2024-02-28T15:06:17;5.47;;;1.50;;
72949;SDS011;64868;45.710;9.590;2024-02-28T15:08:50;5.32;;;1.60;;
72949;SDS011;64868;45.710;9.590;2024-02-28T15:11:30;5.47;;;1.35;;
72949;SDS011;64868;45.710;9.590;2024-02-28T15:13:58;6.53;;;1.50;;
72949;SDS011;64868;45.710;9.590;2024-02-28T15:16:30;5.90;;;1.70;;
72949;SDS011;64868;45.710;9.590;2024-02-28T15:18:57;6.85;;;1.98;;
72949;SDS011;64868;45.710;9.590;2024-02-28T15:21:23;5.30;;;1.60;;
72949;SDS011;64868;45.710;9.590;2024-02-28T15:26:36;5.43;;;2.05;;
72949;SDS011;64868;45.710;9.590;2024-02-28T15:29:10;5.97;;;2.10;;
72949;SDS011;64868;45.710;9.590;2024-02-28T15:31:37;6.20;;;1.73;;
72949;SDS011;64868;45.710;9.590;2024-02-28T15:34:03;5.53;;;2.03;;
72949;SDS011;64868;45.710;9.590;2024-02-28T15:36:40;4.88;;;1.80;;
72949;SDS011;64868;45.710;9.590;2024-02-28T15:44:59;10.02;;;2.20;;
72949;SDS011;64868;45.710;9.590;2024-02-28T15:52:49;8.88;;;2.50;;
72949;SDS011;64868;45.710;9.590;2024-02-28T15:55:17;9.18;;;2.92;;
72949;SDS011;64868;45.710;9.590;2024-02-28T15:57:45;7.03;;;2.53;;
72949;SDS011;64868;45.710;9.590;2024-02-28T16:00:30;6.05;;;2.33;;
72949;SDS011;64868;45.710;9.590;2024-02-28T16:02:56;8.02;;;2.35;;
72949;SDS011;64868;45.710;9.590;2024-02-28T16:07:55;7.03;;;2.30;;
72949;SDS011;64868;45.710;9.590;2024-02-28T16:10:22;5.25;;;2.28;;
72949;SDS011;64868;45.710;9.590;2024-02-28T16:12:48;5.72;;;2.22;;
72949;SDS011;64868;45.710;9.590;2024-02-28T16:15:14;6.97;;;2.25;;
72949;SDS011;64868;45.710;9.590;2024-02-28T16:17:40;6.88;;;2.00;;
72949;SDS011;64868;45.710;9.590;2024-02-28T16:22:51;7.05;;;2.17;;
72949;SDS011;64868;45.710;9.590;2024-02-28T16:25:24;9.20;;;2.80;;
72949;SDS011;64868;45.710;9.590;2024-02-28T16:37:34;7.63;;;3.15;;
72949;SDS011;64868;45.710;9.590;2024-02-28T16:42:52;9.45;;;3.47;;
72949;SDS011;64868;45.710;9.590;2024-02-28T16:45:42;9.07;;;3.38;;
72949;SDS011;64868;45.710;9.590;2024-02-28T16:48:45;9.90;;;3.70;;
72949;SDS011;64868;45.710;9.590;2024-02-28T16:51:14;8.43;;;3.63;;
72949;SDS011;64868;45.710;9.590;2024-02-28T17:05:09;9.45;;;3.47;;
72949;SDS011;64868;45.710;9.590;2024-02-28T17:10:07;10.15;;;3.30;;
72949;SDS011;64868;45.710;9.590;2024-02-28T17:12:47;7.80;;;3.33;;
72949;SDS011;64868;45.710;9.590;2024-02-28T17:18:09;6.88;;;2.33;;
72949;SDS011;64868;45.710;9.590;2024-02-28T17:20:35;14.10;;;3.53;;
72949;SDS011;64868;45.710;9.590;2024-02-28T17:23:14;9.65;;;3.80;;
72949;SDS011;64868;45.710;9.590;2024-02-28T17:25:41;12.48;;;3.55;;
72949;SDS011;64868;45.710;9.590;2024-02-28T17:28:07;9.32;;;3.33;;
72949;SDS011;64868;45.710;9.590;2024-02-28T17:30:35;8.52;;;2.83;;
72949;SDS011;64868;45.710;9.590;2024-02-28T17:33:08;11.77;;;3.38;;
72949;SDS011;64868;45.710;9.590;2024-02-28T17:35:35;9.00;;;2.80;;
72949;SDS011;64868;45.710;9.590;2024-02-28T17:38:19;9.40;;;3.15;;
72949;SDS011;64868;45.710;9.590;2024-02-28T17:41:01;13.25;;;5.05;;
72949;SDS011;64868;45.710;9.590;2024-02-28T17:46:05;13.60;;;6.28;;
72949;SDS011;64868;45.710;9.590;2024-02-28T17:48:34;14.45;;;7.50;;
72949;SDS011;64868;45.710;9.590;2024-02-28T17:51:03;13.32;;;7.03;;
72949;SDS011;64868;45.710;9.590;2024-02-28T17:53:30;11.95;;;5.78;;
72949;SDS011;64868;45.710;9.590;2024-02-28T18:02:02;9.10;;;3.45;;
72949;SDS011;64868;45.710;9.590;2024-02-28T18:04:29;11.00;;;3.78;;
72949;SDS011;64868;45.710;9.590;2024-02-28T18:10:07;10.27;;;3.25;;
72949;SDS011;64868;45.710;9.590;2024-02-28T18:12:41;10.07;;;3.15;;
72949;SDS011;64868;45.710;9.590;2024-02-28T18:15:22;8.32;;;3.40;;
72949;SDS011;64868;45.710;9.590;2024-02-28T18:21:39;7.53;;;3.42;;
72949;SDS011;64868;45.710;9.590;2024-02-28T18:34:46;12.57;;;4.85;;
72949;SDS011;64868;45.710;9.590;2024-02-28T18:40:53;7.90;;;3.15;;
72949;SDS011;64868;45.710;9.590;2024-02-28T18:49:35;10.70;;;4.28;;
72949;SDS011;64868;45.710;9.590;2024-02-28T19:02:43;8.00;;;3.40;;
72949;SDS011;64868;45.710;9.590;2024-02-28T19:14:51;13.13;;;5.70;;
72949;SDS011;64868;45.710;9.590;2024-02-28T19:37:16;14.00;;;5.50;;
72949;SDS011;64868;45.710;9.590;2024-02-28T19:39:54;10.32;;;5.20;;
72949;SDS011;64868;45.710;9.590;2024-02-28T19:59:44;15.93;;;8.50;;
72949;SDS011;64868;45.710;9.590;2024-02-28T20:31:04;21.50;;;10.93;;
72949;SDS011;64868;45.710;9.590;2024-02-28T20:33:38;18.38;;;9.60;;
72949;SDS011;64868;45.710;9.590;2024-02-28T20:36:11;17.55;;;9.63;;
72949;SDS011;64868;45.710;9.590;2024-02-28T20:38:47;17.77;;;10.70;;
72949;SDS011;64868;45.710;9.590;2024-02-28T20:41:22;14.68;;;9.02;;
72949;SDS011;64868;45.710;9.590;2024-02-28T20:43:59;18.90;;;9.43;;
72949;SDS011;64868;45.710;9.590;2024-02-28T20:46:44;16.70;;;9.00;;
72949;SDS011;64868;45.710;9.590;2024-02-28T20:49:12;17.88;;;9.43;;
72949;SDS011;64868;45.710;9.590;2024-02-28T20:51:41;17.63;;;10.05;;
72949;SDS011;64868;45.710;9.590;2024-02-28T21:12:00;17.25;;;9.52;;
72949;SDS011;64868;45.710;9.590;2024-02-28T21:14:53;18.85;;;10.10;;
72949;SDS011;64868;45.710;9.590;2024-02-28T21:35:32;17.98;;;9.70;;
72949;SDS011;64868;45.710;9.590;2024-02-28T21:41:21;16.27;;;9.85;;
72949;SDS011;64868;45.710;9.590;2024-02-28T21:44:26;16.75;;;8.40;;
72949;SDS011;64868;45.710;9.590;2024-02-28T21:47:42;18.30;;;9.27;;
72949;SDS011;64868;45.710;9.590;2024-02-28T21:51:07;18.17;;;8.90;;
72949;SDS011;64868;45.710;9.590;2024-02-28T21:53:46;16.15;;;9.57;;
72949;SDS011;64868;45.710;9.590;2024-02-28T21:56:23;16.05;;;9.60;;
72949;SDS011;64868;45.710;9.590;2024-02-28T22:13:19;15.77;;;8.93;;
72949;SDS011;64868;45.710;9.590;2024-02-28T22:16:18;14.40;;;9.02;;
72949;SDS011;64868;45.710;9.590;2024-02-28T22:18:53;16.52;;;8.65;;
72949;SDS011;64868;45.710;9.590;2024-02-28T22:21:35;15.85;;;9.30;;
72949;SDS011;64868;45.710;9.590;2024-02-28T22:29:41;15.52;;;8.98;;
72949;SDS011;64868;45.710;9.590;2024-02-28T22:35:00;17.50;;;9.48;;
72949;SDS011;64868;45.710;9.590;2024-02-28T22:40:02;20.52;;;9.35;;
72949;SDS011;64868;45.710;9.590;2024-02-28T22:45:47;14.68;;;9.23;;
72949;SDS011;64868;45.710;9.590;2024-02-28T22:51:02;16.13;;;8.98;;
72949;SDS011;64868;45.710;9.590;2024-02-28T22:53:29;17.42;;;9.77;;
72949;SDS011;64868;45.710;9.590;2024-02-28T22:58:49;15.88;;;9.40;;